createdAt,value
2018-05-18T00:01:28.384Z,38.37
2018-05-18T00:03:55.932Z,32.53
2018-05-18T00:06:23.437Z,35.80
2018-05-18T00:08:50.918Z,33.63
2018-05-18T00:11:18.400Z,34.30
2018-05-18T00:13:46.631Z,39.83
2018-05-18T00:16:14.133Z,38.23
2018-05-18T00:18:41.614Z,35.97
2018-05-18T00:21:09.140Z,34.43
2018-05-18T00:23:36.601Z,40.30
2018-05-18T00:26:04.081Z,41.53
2018-05-18T00:28:31.573Z,53.23
2018-05-18T00:30:59.065Z,37.97
2018-05-18T00:33:26.555Z,34.60
2018-05-18T00:35:54.040Z,33.13
2018-05-18T00:38:21.497Z,37.43
2018-05-18T00:40:48.964Z,37.60
2018-05-18T00:43:16.425Z,49.43
2018-05-18T00:45:43.905Z,37.53
2018-05-18T00:48:11.370Z,32.47
2018-05-18T00:50:38.948Z,44.10
2018-05-18T00:53:07.171Z,36.17
2018-05-18T00:55:40.252Z,34.17
2018-05-18T00:58:07.713Z,39.67
2018-05-18T01:00:35.184Z,37.10
2018-05-18T01:03:02.675Z,38.03
2018-05-18T01:05:30.905Z,41.77
2018-05-18T01:07:58.393Z,41.43
2018-05-18T01:10:26.657Z,39.23
2018-05-18T01:12:54.223Z,34.87
2018-05-18T01:15:21.656Z,41.77
2018-05-18T01:17:49.145Z,34.00
2018-05-18T01:20:16.608Z,36.93
2018-05-18T01:22:44.856Z,38.77
2018-05-18T01:25:12.336Z,38.63
2018-05-18T01:27:39.868Z,32.60
2018-05-18T01:30:07.340Z,41.40
2018-05-18T01:32:34.815Z,30.73
2018-05-18T01:35:03.065Z,34.67
2018-05-18T01:37:30.524Z,30.00
2018-05-18T01:39:58.001Z,39.03
2018-05-18T01:42:26.233Z,31.73
2018-05-18T01:44:53.936Z,36.60
2018-05-18T01:47:22.203Z,28.67
2018-05-18T01:49:49.704Z,35.10
2018-05-18T01:52:17.165Z,39.57
2018-05-18T01:54:44.625Z,31.73
2018-05-18T01:57:12.128Z,31.43
2018-05-18T01:59:39.640Z,30.73
2018-05-18T02:02:07.140Z,29.83
2018-05-18T02:04:34.600Z,31.73
2018-05-18T02:07:02.060Z,39.23
2018-05-18T02:09:29.534Z,38.63
2018-05-18T02:11:57.018Z,40.23
2018-05-18T02:14:24.476Z,47.37
2018-05-18T02:16:51.936Z,36.17
2018-05-18T02:19:19.374Z,31.13
2018-05-18T02:21:46.842Z,30.07
2018-05-18T02:24:14.308Z,38.20
2018-05-18T02:26:41.761Z,32.23
2018-05-18T02:29:09.215Z,35.50
2018-05-18T02:31:36.656Z,37.80
2018-05-18T02:34:04.130Z,31.87
2018-05-18T02:36:31.556Z,41.67
2018-05-18T02:38:59.819Z,33.17
2018-05-18T02:41:27.251Z,33.37
2018-05-18T02:43:54.752Z,34.67
2018-05-18T02:46:22.197Z,28.90
2018-05-18T02:48:50.411Z,33.50
2018-05-18T02:51:17.864Z,30.50
2018-05-18T02:53:45.318Z,34.37
2018-05-18T02:56:12.833Z,33.00
2018-05-18T02:58:40.288Z,33.63
2018-05-18T03:01:07.758Z,31.00
2018-05-18T03:03:35.186Z,27.47
2018-05-18T03:06:02.659Z,36.53
2018-05-18T03:08:30.114Z,32.90
2018-05-18T03:10:57.557Z,31.37
2018-05-18T03:13:25.034Z,34.30
2018-05-18T03:15:52.476Z,34.40
2018-05-18T03:18:19.948Z,34.03
2018-05-18T03:20:47.387Z,26.23
2018-05-18T03:23:14.863Z,30.43
2018-05-18T03:25:42.320Z,28.13
2018-05-18T03:28:10.578Z,34.17
2018-05-18T03:30:38.016Z,28.93
2018-05-18T03:33:05.458Z,40.50
2018-05-18T03:35:32.913Z,31.37
2018-05-18T03:38:00.369Z,36.23
2018-05-18T03:40:27.819Z,33.20
2018-05-18T03:42:55.268Z,25.13
2018-05-18T03:45:22.731Z,34.70
2018-05-18T03:47:50.200Z,31.57
2018-05-18T03:50:17.661Z,30.80
2018-05-18T03:52:45.117Z,43.60
2018-05-18T03:55:12.561Z,38.47
2018-05-18T03:57:40.032Z,28.07
2018-05-18T04:00:07.585Z,27.10
2018-05-18T04:02:46.853Z,32.53
2018-05-18T04:05:26.165Z,36.90
2018-05-18T04:08:05.482Z,38.67
2018-05-18T04:10:32.942Z,33.53
2018-05-18T04:13:00.412Z,28.37
2018-05-18T04:15:27.890Z,38.00
2018-05-18T04:17:55.359Z,36.17
2018-05-18T04:20:22.788Z,37.17
2018-05-18T04:22:51.029Z,36.03
2018-05-18T04:25:18.491Z,36.20
2018-05-18T04:27:45.949Z,35.37
2018-05-18T04:30:13.471Z,39.73
2018-05-18T04:32:40.872Z,36.43
2018-05-18T04:35:08.536Z,43.03
2018-05-18T04:37:35.972Z,35.03
2018-05-18T04:40:03.439Z,36.97
2018-05-18T04:42:30.896Z,37.53
2018-05-18T04:44:58.340Z,31.57
2018-05-18T04:47:26.570Z,31.47
2018-05-18T04:49:54.023Z,34.00
2018-05-18T04:52:21.497Z,32.60
2018-05-18T04:54:48.940Z,33.57
2018-05-18T04:57:16.421Z,37.10
2018-05-18T04:59:44.646Z,33.63
2018-05-18T05:02:12.117Z,33.07
2018-05-18T05:04:40.328Z,34.60
2018-05-18T05:07:07.784Z,28.70
2018-05-18T05:09:36.044Z,36.27
2018-05-18T05:12:03.488Z,36.80
2018-05-18T05:14:30.995Z,32.03
2018-05-18T05:16:58.445Z,32.77
2018-05-18T05:19:26.678Z,33.93
2018-05-18T05:21:54.142Z,34.70
2018-05-18T05:24:21.607Z,35.10
2018-05-18T05:26:49.049Z,37.00
2018-05-18T05:29:16.528Z,33.20
2018-05-18T05:31:44.533Z,31.23
2018-05-18T05:34:12.011Z,30.13
2018-05-18T05:36:39.468Z,32.37
2018-05-18T05:39:06.921Z,32.60
2018-05-18T05:41:34.380Z,33.57
2018-05-18T05:44:01.838Z,34.40
2018-05-18T05:46:29.317Z,33.37
2018-05-18T05:48:56.809Z,30.83
2018-05-18T05:51:25.078Z,33.83
2018-05-18T05:53:52.569Z,32.13
2018-05-18T05:56:20.066Z,33.53
2018-05-18T05:58:47.529Z,27.43
2018-05-18T06:01:14.967Z,30.83
2018-05-18T06:03:42.413Z,31.23
2018-05-18T06:06:09.877Z,32.10
2018-05-18T06:08:37.317Z,30.37
2018-05-18T06:11:04.786Z,28.43
2018-05-18T06:13:32.240Z,30.63
2018-05-18T06:15:59.710Z,26.00
2018-05-18T06:18:27.173Z,26.27
2018-05-18T06:20:54.625Z,33.87
2018-05-18T06:23:22.085Z,28.67
2018-05-18T06:25:49.528Z,22.57
2018-05-18T06:28:17.002Z,25.93
2018-05-18T06:30:44.780Z,24.20
2018-05-18T06:33:12.320Z,28.50
2018-05-18T06:35:39.796Z,31.60
2018-05-18T06:38:07.237Z,22.70
2018-05-18T06:40:34.836Z,22.83
2018-05-18T06:43:03.089Z,22.93
2018-05-18T06:45:30.625Z,21.60
2018-05-18T06:47:58.078Z,22.33
2018-05-18T06:50:25.569Z,27.83
2018-05-18T06:52:53.024Z,22.83
2018-05-18T06:55:20.477Z,25.87
2018-05-18T06:57:47.915Z,26.60
2018-05-18T07:00:15.385Z,29.87
2018-05-18T07:02:42.841Z,27.53
2018-05-18T07:05:10.297Z,25.57
2018-05-18T07:07:37.753Z,23.17
2018-05-18T07:10:05.188Z,21.83
2018-05-18T07:12:32.680Z,26.70
2018-05-18T07:15:00.141Z,31.50
2018-05-18T07:17:27.588Z,36.17
2018-05-18T07:19:55.049Z,30.67
2018-05-18T07:22:22.496Z,36.30
2018-05-18T07:24:49.958Z,33.67
2018-05-18T07:27:17.418Z,33.53
2018-05-18T07:29:44.864Z,27.90
2018-05-18T07:32:12.361Z,30.60
2018-05-18T07:34:40.493Z,33.70
2018-05-18T07:37:07.958Z,32.63
2018-05-18T07:39:36.176Z,33.37
2018-05-18T07:42:04.403Z,33.47
2018-05-18T07:44:31.889Z,29.17
2018-05-18T07:46:59.389Z,40.97
2018-05-18T07:49:26.833Z,35.20
2018-05-18T07:51:54.297Z,32.60
2018-05-18T07:54:21.761Z,40.30
2018-05-18T07:56:49.229Z,38.10
2018-05-18T07:59:16.677Z,28.97
2018-05-18T08:01:44.148Z,31.77
2018-05-18T08:04:11.729Z,31.73
2018-05-18T08:06:39.185Z,32.53
2018-05-18T08:09:06.660Z,40.37
2018-05-18T08:11:34.127Z,45.10
2018-05-18T08:14:01.589Z,34.70
2018-05-18T08:16:29.044Z,36.33
2018-05-18T08:18:56.502Z,40.43
2018-05-18T08:21:23.945Z,46.83
2018-05-18T08:23:51.401Z,39.87
2018-05-18T08:26:19.538Z,50.17
2018-05-18T08:28:58.285Z,41.67
2018-05-18T08:31:26.520Z,42.10
2018-05-18T08:33:54.798Z,37.80
2018-05-18T08:36:22.253Z,45.87
2018-05-18T08:38:49.692Z,43.03
2018-05-18T08:41:17.167Z,45.50
2018-05-18T08:43:44.597Z,35.80
2018-05-18T08:46:12.322Z,41.77
2018-05-18T08:48:39.760Z,41.57
2018-05-18T08:51:07.221Z,41.53
2018-05-18T08:53:34.667Z,49.33
2018-05-18T08:56:02.129Z,42.97
2018-05-18T08:58:30.336Z,35.57
2018-05-18T09:00:58.330Z,37.70
2018-05-18T09:03:25.788Z,42.60
2018-05-18T09:05:54.029Z,35.13
2018-05-18T09:08:21.496Z,37.67
2018-05-18T09:10:48.944Z,40.00
2018-05-18T09:13:16.404Z,38.40
2018-05-18T09:15:43.863Z,38.97
2018-05-18T09:18:11.418Z,37.23
2018-05-18T09:20:38.874Z,31.07
2018-05-18T09:23:06.313Z,41.87
2018-05-18T09:25:33.789Z,35.27
2018-05-18T09:28:01.250Z,31.80
2018-05-18T09:30:30.017Z,27.53
2018-05-18T09:32:57.462Z,29.20
2018-05-18T09:35:24.925Z,26.13
2018-05-18T09:37:52.377Z,33.00
2018-05-18T09:40:19.864Z,30.23
2018-05-18T09:42:48.097Z,30.50
2018-05-18T09:45:15.578Z,24.60
2018-05-18T09:47:42.995Z,24.83
2018-05-18T09:50:10.483Z,31.87
2018-05-18T09:52:37.949Z,30.53
2018-05-18T09:55:05.565Z,34.37
2018-05-18T09:57:32.881Z,28.97
2018-05-18T10:00:01.182Z,25.80
2018-05-18T10:02:29.396Z,25.83
2018-05-18T10:04:56.829Z,30.83
2018-05-18T10:07:24.284Z,27.40
2018-05-18T10:09:51.729Z,30.20
2018-05-18T10:12:19.200Z,28.10
2018-05-18T10:14:47.413Z,22.27
2018-05-18T10:17:28.184Z,27.17
2018-05-18T10:19:55.744Z,31.60
2018-05-18T10:22:23.209Z,30.07
2018-05-18T10:24:50.666Z,29.50
2018-05-18T10:27:18.155Z,29.47
2018-05-18T10:29:45.640Z,24.03
2018-05-18T10:32:13.953Z,31.27
2018-05-18T10:34:41.417Z,29.57
2018-05-18T10:37:08.886Z,29.43
2018-05-18T10:39:36.385Z,30.07
2018-05-18T10:42:03.793Z,26.23
2018-05-18T10:44:31.264Z,32.37
2018-05-18T10:46:58.705Z,32.03
2018-05-18T10:49:26.196Z,27.47
2018-05-18T10:51:53.630Z,34.33
2018-05-18T10:54:21.089Z,36.60
2018-05-18T10:56:48.557Z,32.77
2018-05-18T10:59:16.002Z,41.47
2018-05-18T11:01:43.456Z,30.30
2018-05-18T11:04:10.908Z,32.20
2018-05-18T11:06:38.390Z,28.20
2018-05-18T11:09:05.861Z,34.73
2018-05-18T11:11:33.288Z,33.53
2018-05-18T11:14:00.799Z,30.40
2018-05-18T11:16:28.206Z,35.97
2018-05-18T11:18:55.683Z,33.90
2018-05-18T11:21:23.148Z,32.87
2018-05-18T11:23:51.380Z,34.90
2018-05-18T11:26:18.836Z,38.83
2018-05-18T11:28:46.316Z,37.73
2018-05-18T11:31:13.981Z,27.57
2018-05-18T11:33:49.317Z,29.57
2018-05-18T11:36:18.177Z,32.73
2018-05-18T11:38:45.644Z,31.07
2018-05-18T11:41:13.105Z,49.07
2018-05-18T11:43:40.557Z,68.80
2018-05-18T11:46:08.949Z,51.30
2018-05-18T11:48:36.408Z,34.70
2018-05-18T11:51:03.848Z,26.67
2018-05-18T11:53:31.321Z,32.43
2018-05-18T11:55:58.800Z,29.47
2018-05-18T11:58:26.257Z,26.50
2018-05-18T12:00:53.716Z,22.40
2018-05-18T12:03:21.171Z,21.63
2018-05-18T12:05:48.616Z,22.27
2018-05-18T12:08:16.240Z,22.77
2018-05-18T12:10:43.708Z,30.57
2018-05-18T12:13:11.185Z,33.50
2018-05-18T12:15:38.642Z,33.23
2018-05-18T12:18:06.132Z,31.17
2018-05-18T12:20:33.698Z,31.57
2018-05-18T12:23:01.196Z,47.70
2018-05-18T12:25:28.629Z,42.60
2018-05-18T12:27:56.104Z,34.93
2018-05-18T12:30:23.596Z,32.43
2018-05-18T12:32:51.058Z,41.90
2018-05-18T12:35:18.520Z,40.53
2018-05-18T12:37:46.869Z,37.87
2018-05-18T12:40:15.434Z,40.77
2018-05-18T12:42:42.953Z,34.47
2018-05-18T12:45:10.418Z,32.97
2018-05-18T12:47:37.895Z,37.13
2018-05-18T12:50:05.331Z,31.33
2018-05-18T12:52:32.780Z,31.63
2018-05-18T12:55:00.254Z,27.40
2018-05-18T12:57:27.729Z,32.57
2018-05-18T12:59:55.168Z,32.83
2018-05-18T13:02:22.605Z,33.67
2018-05-18T13:04:50.084Z,27.70
2018-05-18T13:07:17.505Z,26.77
2018-05-18T13:09:44.977Z,28.13
2018-05-18T13:12:12.439Z,31.73
2018-05-18T13:14:40.085Z,27.83
2018-05-18T13:17:07.543Z,35.30
2018-05-18T13:19:35.012Z,31.43
2018-05-18T13:22:02.505Z,30.43
2018-05-18T13:24:30.141Z,31.47
2018-05-18T13:26:57.604Z,30.00
2018-05-18T13:29:25.092Z,35.57
2018-05-18T13:31:52.533Z,28.83
2018-05-18T13:34:19.999Z,39.47
2018-05-18T13:36:47.465Z,33.10
2018-05-18T13:39:14.975Z,34.30
2018-05-18T13:41:42.409Z,39.27
2018-05-18T13:44:10.633Z,30.40
2018-05-18T13:46:38.848Z,31.83
2018-05-18T13:49:06.415Z,29.37
2018-05-18T13:51:34.636Z,24.97
2018-05-18T13:54:02.072Z,31.67
2018-05-18T13:56:30.373Z,27.73
2018-05-18T13:58:57.832Z,32.40
2018-05-18T14:01:26.003Z,36.63
2018-05-18T14:03:54.229Z,29.83
2018-05-18T14:06:21.857Z,28.03
2018-05-18T14:08:49.300Z,26.00
2018-05-18T14:11:17.668Z,27.20
2018-05-18T14:13:45.104Z,27.60
2018-05-18T14:16:14.157Z,25.83
2018-05-18T14:18:41.589Z,23.30
2018-05-18T14:21:09.053Z,30.13
2018-05-18T14:23:36.514Z,32.77
2018-05-18T14:26:03.952Z,22.03
2018-05-18T14:28:31.866Z,24.83
2018-05-18T14:31:00.065Z,26.33
2018-05-18T14:33:27.578Z,26.27
2018-05-18T14:35:55.010Z,29.60
2018-05-18T14:38:22.448Z,30.13
2018-05-18T14:40:50.693Z,26.90
2018-05-18T14:43:18.132Z,31.83
2018-05-18T14:45:45.564Z,26.63
2018-05-18T14:48:13.076Z,25.33
2018-05-18T14:50:40.529Z,28.93
2018-05-18T14:53:08.005Z,24.70
2018-05-18T14:55:35.451Z,25.73
2018-05-18T14:58:02.904Z,27.23
2018-05-18T15:00:30.384Z,30.00
2018-05-18T15:02:58.628Z,23.93
2018-05-18T15:05:26.099Z,28.43
2018-05-18T15:07:53.567Z,28.30
2018-05-18T15:10:21.025Z,38.73
2018-05-18T15:12:48.493Z,21.33
2018-05-18T15:15:16.745Z,24.97
2018-05-18T15:17:44.224Z,23.93
2018-05-18T15:20:11.668Z,22.23
2018-05-18T15:22:39.160Z,23.70
2018-05-18T15:25:06.615Z,27.50
2018-05-18T15:27:34.192Z,26.07
2018-05-18T15:30:01.668Z,23.50
2018-05-18T15:32:29.109Z,29.73
2018-05-18T15:34:56.716Z,30.53
2018-05-18T15:37:24.246Z,25.07
2018-05-18T15:39:51.629Z,31.90
2018-05-18T15:42:19.072Z,23.07
2018-05-18T15:44:46.549Z,27.17
2018-05-18T15:47:13.997Z,23.27
2018-05-18T15:49:41.800Z,28.70
2018-05-18T15:52:09.265Z,22.53
2018-05-18T15:54:36.684Z,23.00
2018-05-18T15:57:04.145Z,27.43
2018-05-18T15:59:32.401Z,24.30
2018-05-18T16:01:59.868Z,44.17
2018-05-18T16:04:27.427Z,24.60
2018-05-18T16:06:55.565Z,35.73
2018-05-18T16:09:23.006Z,26.50
2018-05-18T16:11:50.463Z,24.47
2018-05-18T16:14:17.941Z,41.83
2018-05-18T16:16:46.244Z,71.77
2018-05-18T16:19:13.685Z,26.27
2018-05-18T16:21:41.155Z,22.43
2018-05-18T16:24:08.624Z,29.97
2018-05-18T16:26:36.082Z,28.57
2018-05-18T16:29:06.815Z,25.13
2018-05-18T16:31:34.753Z,24.97
2018-05-18T16:34:02.192Z,28.83
2018-05-18T16:36:29.653Z,46.67
2018-05-18T16:38:57.194Z,29.00
2018-05-18T16:41:24.637Z,31.97
2018-05-18T16:43:52.098Z,26.00
2018-05-18T16:46:19.568Z,25.83
2018-05-18T16:48:47.009Z,26.70
2018-05-18T16:51:14.491Z,32.80
2018-05-18T16:53:42.250Z,29.27
2018-05-18T16:56:09.861Z,27.13
2018-05-18T16:58:39.896Z,26.27
2018-05-18T17:01:07.439Z,31.87
2018-05-18T17:03:34.916Z,39.33
2018-05-18T17:06:02.369Z,26.77
2018-05-18T17:08:29.828Z,29.67
2018-05-18T17:10:57.276Z,26.50
2018-05-18T17:13:28.363Z,30.33
2018-05-18T17:15:55.921Z,27.43
2018-05-18T17:18:23.431Z,29.03
2018-05-18T17:20:53.126Z,25.53
2018-05-18T17:23:21.902Z,28.70
2018-05-18T17:25:49.419Z,32.87
2018-05-18T17:28:16.806Z,23.63
2018-05-18T17:30:44.252Z,32.27
2018-05-18T17:33:12.452Z,30.50
2018-05-18T17:35:39.912Z,28.77
2018-05-18T17:38:07.349Z,30.07
2018-05-18T17:40:36.399Z,30.30
2018-05-18T17:43:03.856Z,29.93
2018-05-18T17:45:31.650Z,28.37
2018-05-18T17:47:59.097Z,25.53
2018-05-18T17:50:26.545Z,27.27
2018-05-18T17:52:54.011Z,31.43
2018-05-18T17:55:21.489Z,39.27
2018-05-18T17:57:50.437Z,33.57
2018-05-18T18:00:18.052Z,26.50
2018-05-18T18:02:45.512Z,25.10
2018-05-18T18:05:12.960Z,33.87
2018-05-18T18:07:40.424Z,31.30
2018-05-18T18:10:07.885Z,30.93
2018-05-18T18:12:36.179Z,24.83
2018-05-18T18:15:04.109Z,27.47
2018-05-18T18:17:33.782Z,29.07
2018-05-18T18:20:01.243Z,29.40
2018-05-18T18:22:28.715Z,28.60
2018-05-18T18:24:56.164Z,28.03
2018-05-18T18:27:23.626Z,23.13
2018-05-18T18:29:51.120Z,26.67
2018-05-18T18:32:18.578Z,24.97
2018-05-18T18:34:46.806Z,23.73
2018-05-18T18:37:14.252Z,37.83
2018-05-18T18:39:41.708Z,31.37
2018-05-18T18:42:09.181Z,31.00
2018-05-18T18:44:36.630Z,26.20
2018-05-18T18:47:04.850Z,32.00
2018-05-18T18:49:33.071Z,23.87
2018-05-18T18:52:00.642Z,25.20
2018-05-18T18:54:28.009Z,23.67
2018-05-18T18:56:55.476Z,19.63
2018-05-18T18:59:22.916Z,24.03
2018-05-18T19:01:50.376Z,26.80
2018-05-18T19:04:17.832Z,24.40
2018-05-18T19:06:46.792Z,22.47
2018-05-18T19:09:14.269Z,25.83
2018-05-18T19:11:41.745Z,25.87
2018-05-18T19:14:09.214Z,22.77
2018-05-18T19:16:36.886Z,25.37
2018-05-18T19:19:04.344Z,22.57
2018-05-18T19:21:32.542Z,22.37
2018-05-18T19:23:59.991Z,20.13
2018-05-18T19:26:28.212Z,22.10
2018-05-18T19:28:55.705Z,22.77
2018-05-18T19:31:23.905Z,26.83
2018-05-18T19:33:51.381Z,24.80
2018-05-18T19:36:18.855Z,20.27
2018-05-18T19:38:46.369Z,23.77
2018-05-18T19:41:13.848Z,23.60
2018-05-18T19:43:41.298Z,22.60
2018-05-18T19:46:08.721Z,22.20
2018-05-18T19:48:36.973Z,24.73
2018-05-18T19:51:04.432Z,21.03
2018-05-18T19:53:31.875Z,25.70
2018-05-18T19:55:59.341Z,23.70
2018-05-18T19:58:26.790Z,24.23
2018-05-18T20:00:54.229Z,27.00
2018-05-18T20:03:21.706Z,26.43
2018-05-18T20:05:49.172Z,31.00
2018-05-18T20:08:16.619Z,24.40
2018-05-18T20:10:44.078Z,22.13
2018-05-18T20:13:11.534Z,28.33
2018-05-18T20:15:39.625Z,19.07
2018-05-18T20:18:07.118Z,27.00
2018-05-18T20:20:34.576Z,19.73
2018-05-18T20:23:02.805Z,31.23
2018-05-18T20:25:30.242Z,22.97
2018-05-18T20:27:57.696Z,25.00
2018-05-18T20:30:25.152Z,23.27
2018-05-18T20:32:52.628Z,28.37
2018-05-18T20:35:20.078Z,26.47
2018-05-18T20:37:47.577Z,30.67
2018-05-18T20:40:15.056Z,25.93
2018-05-18T20:42:42.489Z,26.07
2018-05-18T20:45:10.051Z,25.30
2018-05-18T20:47:37.437Z,21.73
2018-05-18T20:50:04.900Z,21.87
2018-05-18T20:52:32.462Z,28.40
2018-05-18T20:54:59.928Z,31.93
2018-05-18T20:57:27.425Z,25.47
2018-05-18T20:59:54.963Z,22.63
2018-05-18T21:02:23.205Z,24.00
2018-05-18T21:04:50.642Z,25.17
2018-05-18T21:07:18.115Z,25.40
2018-05-18T21:09:46.366Z,23.37
2018-05-18T21:12:13.799Z,25.07
2018-05-18T21:14:41.248Z,23.20
2018-05-18T21:17:08.704Z,26.17
2018-05-18T21:19:36.193Z,24.77
2018-05-18T21:22:03.648Z,25.10
2018-05-18T21:24:31.109Z,23.10
2018-05-18T21:26:58.548Z,29.70
2018-05-18T21:29:26.067Z,27.30
2018-05-18T21:31:53.535Z,21.60
2018-05-18T21:34:20.982Z,25.90
2018-05-18T21:36:48.467Z,24.73
2018-05-18T21:39:16.749Z,23.23
2018-05-18T21:41:44.210Z,28.67
2018-05-18T21:44:11.677Z,24.80
2018-05-18T21:46:39.167Z,28.07
2018-05-18T21:49:06.601Z,24.23
2018-05-18T21:51:34.845Z,25.87
2018-05-18T21:54:02.302Z,26.73
2018-05-18T21:56:29.761Z,27.93
2018-05-18T21:58:57.236Z,26.53
2018-05-18T22:01:24.691Z,26.40
2018-05-18T22:03:52.174Z,28.90
2018-05-18T22:06:19.626Z,29.47
2018-05-18T22:08:47.080Z,25.03
2018-05-18T22:11:15.322Z,21.87
2018-05-18T22:13:42.780Z,24.90
2018-05-18T22:16:10.248Z,24.90
2018-05-18T22:18:37.694Z,29.10
2018-05-18T22:21:05.174Z,32.30
2018-05-18T22:23:32.627Z,26.60
2018-05-18T22:26:00.089Z,24.50
2018-05-18T22:28:28.308Z,26.80
2018-05-18T22:30:55.801Z,25.43
2018-05-18T22:33:23.257Z,29.40
2018-05-18T22:35:50.732Z,25.63
2018-05-18T22:38:18.184Z,23.70
2018-05-18T22:40:45.655Z,26.93
2018-05-18T22:43:13.120Z,27.70
2018-05-18T22:45:41.325Z,25.47
2018-05-18T22:48:09.604Z,25.33
2018-05-18T22:50:37.048Z,29.97
2018-05-18T22:53:04.509Z,30.17
2018-05-18T22:55:31.946Z,29.20
2018-05-18T22:57:59.407Z,27.10
2018-05-18T23:00:26.856Z,28.10
2018-05-18T23:02:54.327Z,23.63
2018-05-18T23:05:21.768Z,26.00
2018-05-18T23:07:49.217Z,25.70
2018-05-18T23:10:17.469Z,29.03
2018-05-18T23:12:44.903Z,33.83
2018-05-18T23:15:12.369Z,28.40
2018-05-18T23:17:39.864Z,31.13
2018-05-18T23:20:08.177Z,26.90
2018-05-18T23:22:35.650Z,23.80
2018-05-18T23:25:03.864Z,20.37
2018-05-18T23:27:31.369Z,22.13
2018-05-18T23:29:58.829Z,26.67
2018-05-18T23:32:26.298Z,24.37
2018-05-18T23:34:53.743Z,31.83
2018-05-18T23:37:21.201Z,25.57
2018-05-18T23:39:48.683Z,24.83
2018-05-18T23:42:16.137Z,24.43
2018-05-18T23:44:43.611Z,24.67
2018-05-18T23:47:11.046Z,23.40
2018-05-18T23:49:38.541Z,23.70
2018-05-18T23:52:06.013Z,21.83
2018-05-18T23:54:34.233Z,21.27
2018-05-18T23:57:01.677Z,28.17
2018-05-18T23:59:29.144Z,27.07
